createdAt,value
2022-09-28T00:00:47.734Z,96043.91
2022-09-28T00:05:49.299Z,96042.94
2022-09-28T00:10:57.981Z,96036.97
2022-09-28T00:16:08.666Z,96031.00
2022-09-28T00:21:16.555Z,96026.25
2022-09-28T00:26:18.101Z,96025.66
2022-09-28T00:31:19.772Z,96017.69
2022-09-28T00:36:21.406Z,96020.25
2022-09-28T00:41:24.373Z,96019.06
2022-09-28T00:46:34.176Z,96018.09
2022-09-28T00:51:38.641Z,96011.50
2022-09-28T00:56:46.585Z,96006.53
2022-09-28T01:01:49.338Z,96003.19
2022-09-28T01:06:51.312Z,96011.50
2022-09-28T01:11:53.053Z,96007.34
2022-09-28T01:17:12.351Z,96005.75
2022-09-28T01:22:35.107Z,95996.19
2022-09-28T01:27:44.782Z,96004.94
2022-09-28T01:33:06.985Z,95984.66
2022-09-28T01:38:34.092Z,95990.22
2022-09-28T01:43:43.008Z,95978.47
2022-09-28T01:48:58.353Z,95978.28
2022-09-28T01:54:07.541Z,95963.38
2022-09-28T01:59:21.455Z,95954.00
2022-09-28T02:04:28.821Z,95947.06
2022-09-28T02:09:44.217Z,95942.47
2022-09-28T02:14:49.039Z,95942.28
2022-09-28T02:19:51.403Z,95924.78
2022-09-28T02:25:03.291Z,95925.78
2022-09-28T02:30:07.340Z,95914.66
2022-09-28T02:35:12.101Z,95916.84
2022-09-28T02:40:18.038Z,95905.69
2022-09-28T02:45:34.136Z,95914.03
2022-09-28T02:50:57.103Z,95924.16
2022-09-28T02:56:01.569Z,95922.47
2022-09-28T03:01:15.989Z,95922.44
2022-09-28T03:06:27.217Z,95929.09
2022-09-28T03:11:43.356Z,95922.50
2022-09-28T03:16:46.332Z,95910.59
2022-09-28T03:21:48.058Z,95900.81
2022-09-28T03:26:49.947Z,95880.53
2022-09-28T03:31:51.583Z,95881.69
2022-09-28T03:36:53.335Z,95880.91
2022-09-28T03:41:54.922Z,95878.19
2022-09-28T03:46:56.787Z,95879.78
2022-09-28T03:51:58.348Z,95874.75
2022-09-28T03:57:00.149Z,95865.03
2022-09-28T04:02:01.984Z,95849.75
2022-09-28T04:07:03.811Z,95849.75
2022-09-28T04:12:06.955Z,95837.44
2022-09-28T04:17:08.659Z,95839.22
2022-09-28T04:22:11.161Z,95822.31
2022-09-28T04:27:31.891Z,95811.00
2022-09-28T04:32:36.013Z,95806.91
2022-09-28T04:37:37.625Z,95802.13
2022-09-28T04:42:39.262Z,95801.91
2022-09-28T04:47:40.845Z,95800.75
2022-09-28T04:52:51.823Z,95787.06
2022-09-28T04:57:53.916Z,95794.97
2022-09-28T05:02:55.892Z,95782.72
2022-09-28T05:08:20.481Z,95772.44
2022-09-28T05:13:22.027Z,95769.47
2022-09-28T05:18:24.597Z,95750.03
2022-09-28T05:23:36.471Z,95736.94
2022-09-28T05:28:38.231Z,95725.84
2022-09-28T05:34:11.494Z,95713.34
2022-09-28T05:39:13.548Z,95709.56
2022-09-28T05:44:15.287Z,95715.13
2022-09-28T05:49:17.457Z,95707.59
2022-09-28T05:54:19.279Z,95700.41
2022-09-28T05:59:21.792Z,95711.97
2022-09-28T06:04:24.179Z,95683.53
2022-09-28T06:09:28.598Z,95694.63
2022-09-28T06:14:50.037Z,95683.88
2022-09-28T06:19:52.308Z,95695.41
2022-09-28T06:25:02.257Z,95688.81
2022-09-28T06:30:04.210Z,95689.19
2022-09-28T06:35:06.281Z,95696.69
2022-09-28T06:40:08.321Z,95712.00
2022-09-28T06:45:11.045Z,95709.00
2022-09-28T06:50:33.816Z,95704.06
2022-09-28T06:55:51.146Z,95710.03
2022-09-28T07:00:52.883Z,95701.69
2022-09-28T07:05:56.191Z,95690.75
2022-09-28T07:11:39.594Z,95691.72
2022-09-28T07:17:13.033Z,95688.28
2022-09-28T07:22:18.716Z,95693.06
2022-09-28T07:27:23.399Z,95707.63
2022-09-28T07:32:45.729Z,95708.66
2022-09-28T07:38:07.876Z,95695.66
2022-09-28T07:43:09.423Z,95692.44
2022-09-28T07:53:32.337Z,95690.28
2022-09-28T07:58:52.688Z,95679.19
2022-09-28T08:04:12.740Z,95687.13
2022-09-28T08:09:16.654Z,95688.91
2022-09-28T08:14:37.559Z,95675.84
2022-09-28T08:20:09.332Z,95678.47
2022-09-28T08:25:11.286Z,95669.41
2022-09-28T08:30:12.900Z,95668.66
2022-09-28T08:35:34.930Z,95664.94
2022-09-28T08:41:17.065Z,95663.09
2022-09-28T08:46:47.860Z,95666.88
2022-09-28T08:52:13.535Z,95665.50
2022-09-28T08:57:47.630Z,95664.56
2022-09-28T09:02:50.757Z,95672.25
2022-09-28T09:08:08.760Z,95666.25
2022-09-28T09:13:12.439Z,95657.47
2022-09-28T09:18:22.909Z,95656.88
2022-09-28T09:23:53.858Z,95659.34
2022-09-28T09:29:11.662Z,95666.31
2022-09-28T09:34:37.974Z,95655.72
2022-09-28T09:40:30.468Z,95644.69
2022-09-28T09:45:57.828Z,95656.84
2022-09-28T09:52:06.118Z,95689.22
2022-09-28T09:57:11.984Z,95710.19
2022-09-28T10:02:35.135Z,95709.47
2022-09-28T10:07:49.733Z,95710.84
2022-09-28T10:12:52.645Z,95706.25
2022-09-28T10:17:56.971Z,95712.53
2022-09-28T10:23:25.395Z,95716.06
2022-09-28T10:28:35.670Z,95721.31
2022-09-28T10:33:38.854Z,95725.97
2022-09-28T10:38:47.877Z,95733.34
2022-09-28T10:44:07.070Z,95750.47
2022-09-28T10:49:22.647Z,95748.31
2022-09-28T10:54:34.311Z,95749.16
2022-09-28T10:59:39.751Z,95758.66
2022-09-28T11:05:06.824Z,95765.44
2022-09-28T11:10:26.171Z,95767.97
2022-09-28T11:15:33.560Z,95770.63
2022-09-28T11:20:43.592Z,95768.69
2022-09-28T11:26:07.936Z,95776.81
2022-09-28T11:31:12.303Z,95778.56
2022-09-28T11:36:54.988Z,95779.31
2022-09-28T11:42:17.085Z,95776.41
2022-09-28T11:47:33.254Z,95783.34
2022-09-28T11:53:12.680Z,95785.53
2022-09-28T11:58:26.601Z,95809.88
2022-09-28T12:03:42.131Z,95814.56
2022-09-28T12:08:55.423Z,95816.22
2022-09-28T12:14:28.942Z,95817.75
2022-09-28T12:19:41.270Z,95815.25
2022-09-28T12:24:47.803Z,95820.16
2022-09-28T12:30:03.659Z,95826.22
2022-09-28T12:35:27.874Z,95824.53
2022-09-28T12:40:41.634Z,95832.97
2022-09-28T12:46:09.865Z,95833.03
2022-09-28T12:51:48.076Z,95831.25
2022-09-28T12:57:09.396Z,95838.72
2022-09-28T13:02:23.468Z,95845.13
2022-09-28T13:07:50.900Z,95857.59
2022-09-28T13:13:07.827Z,95855.03
2022-09-28T13:18:46.663Z,95857.25
2022-09-28T13:23:57.873Z,95855.38
2022-09-28T13:29:16.875Z,95860.63
2022-09-28T13:34:22.730Z,95864.53
2022-09-28T13:39:46.242Z,95862.34
2022-09-28T13:44:54.463Z,95871.31
2022-09-28T13:50:03.313Z,95874.50
2022-09-28T13:55:36.257Z,95874.34
2022-09-28T14:00:46.727Z,95884.63
2022-09-28T14:06:21.124Z,95887.69
2022-09-28T14:11:27.836Z,95896.16
2022-09-28T14:16:32.017Z,95896.63
2022-09-28T14:21:55.023Z,95910.44
2022-09-28T14:27:19.860Z,95918.81
2022-09-28T14:32:23.728Z,95925.88
2022-09-28T14:37:48.438Z,95942.81
2022-09-28T14:43:24.827Z,95918.28
2022-09-28T14:48:56.319Z,95913.44
2022-09-28T14:54:05.500Z,95918.94
2022-09-28T14:59:14.577Z,95921.13
2022-09-28T15:04:17.406Z,95932.09
2022-09-28T15:09:47.686Z,95924.31
2022-09-28T15:15:04.392Z,95932.66
2022-09-28T15:20:21.654Z,95940.72
2022-09-28T15:25:26.195Z,95938.22
2022-09-28T15:30:32.060Z,95929.78
2022-09-28T15:35:34.624Z,95943.09
2022-09-28T15:40:43.117Z,95956.03
2022-09-28T15:46:02.990Z,95961.75
2022-09-28T15:51:12.350Z,95958.13
2022-09-28T15:56:14.217Z,95965.84
2022-09-28T16:01:25.963Z,95980.94
2022-09-28T16:06:27.746Z,95980.25
2022-09-28T16:11:38.707Z,95983.53
2022-09-28T16:16:47.585Z,95985.72
2022-09-28T16:21:57.972Z,95991.00
2022-09-28T16:27:03.106Z,96000.69
2022-09-28T16:32:24.648Z,96004.47
2022-09-28T16:37:34.143Z,96007.25
2022-09-28T16:42:37.787Z,96013.41
2022-09-28T16:47:40.600Z,96031.00
2022-09-28T16:53:01.322Z,96035.19
2022-09-28T16:58:04.815Z,96043.97
2022-09-28T17:03:13.679Z,96052.09
2022-09-28T17:08:18.503Z,96052.31
2022-09-28T17:13:33.352Z,96053.50
2022-09-28T17:18:39.541Z,96058.88
2022-09-28T17:23:44.214Z,96056.88
2022-09-28T17:28:46.787Z,96066.84
2022-09-28T17:33:48.524Z,96068.03
2022-09-28T17:38:51.885Z,96084.88
2022-09-28T17:43:55.194Z,96090.06
2022-09-28T17:49:05.236Z,96094.47
2022-09-28T17:54:08.715Z,96095.88
2022-09-28T17:59:14.290Z,96104.22
2022-09-28T18:04:33.734Z,96102.06
2022-09-28T18:09:38.140Z,96102.88
2022-09-28T18:14:40.078Z,96107.88
2022-09-28T18:19:41.840Z,96098.28
2022-09-28T18:24:43.639Z,96105.25
2022-09-28T18:29:45.402Z,96112.75
2022-09-28T18:34:47.133Z,96118.06
2022-09-28T18:39:48.859Z,96117.84
2022-09-28T18:44:50.733Z,96118.66
2022-09-28T18:49:52.606Z,96124.41
2022-09-28T18:54:54.812Z,96132.56
2022-09-28T18:59:56.757Z,96128.41
2022-09-28T19:04:59.185Z,96138.75
2022-09-28T19:10:00.951Z,96133.56
2022-09-28T19:15:02.835Z,96135.53
2022-09-28T19:20:05.638Z,96143.69
2022-09-28T19:25:08.917Z,96144.28
2022-09-28T19:30:11.220Z,96136.75
2022-09-28T19:35:13.528Z,96135.97
2022-09-28T19:40:15.414Z,96140.28
2022-09-28T19:45:17.383Z,96140.69
2022-09-28T19:50:19.152Z,96149.66
2022-09-28T19:55:21.239Z,96141.56
2022-09-28T20:00:23.128Z,96156.66
2022-09-28T20:05:24.862Z,96154.50
2022-09-28T20:10:26.617Z,96160.41
2022-09-28T20:15:28.833Z,96161.44
2022-09-28T20:20:30.723Z,96168.75
2022-09-28T20:25:32.436Z,96169.31
2022-09-28T20:30:34.288Z,96171.84
2022-09-28T20:35:40.486Z,96181.00
2022-09-28T20:40:42.465Z,96178.47
2022-09-28T20:45:44.347Z,96180.38
2022-09-28T20:50:46.105Z,96184.16
2022-09-28T20:55:47.819Z,96193.63
2022-09-28T21:00:49.575Z,96199.38
2022-09-28T21:05:51.703Z,96203.41
2022-09-28T21:10:54.044Z,96205.63
2022-09-28T21:15:55.834Z,96207.88
2022-09-28T21:20:57.751Z,96207.50
2022-09-28T21:26:10.498Z,96211.19
2022-09-28T21:31:13.014Z,96221.75
2022-09-28T21:36:14.763Z,96227.94
2022-09-28T21:41:16.564Z,96232.56
2022-09-28T21:46:18.320Z,96229.41
2022-09-28T21:51:20.931Z,96230.66
2022-09-28T21:56:23.324Z,96232.44
2022-09-28T22:01:26.163Z,96231.66
2022-09-28T22:06:30.515Z,96234.88
2022-09-28T22:11:32.318Z,96243.22
2022-09-28T22:16:34.268Z,96238.25
2022-09-28T22:21:36.089Z,96241.16
2022-09-28T22:26:39.513Z,96237.72
2022-09-28T22:31:41.689Z,96244.47
2022-09-28T22:36:43.434Z,96239.59
2022-09-28T22:41:45.446Z,96245.25
2022-09-28T22:46:47.414Z,96241.31
2022-09-28T22:51:49.412Z,96243.72
2022-09-28T22:56:53.121Z,96243.19
2022-09-28T23:01:54.979Z,96239.16
2022-09-28T23:06:56.722Z,96245.38
2022-09-28T23:11:58.446Z,96252.88
2022-09-28T23:17:00.188Z,96247.06
2022-09-28T23:22:02.032Z,96250.59
2022-09-28T23:27:03.880Z,96248.44
2022-09-28T23:32:05.634Z,96253.81
2022-09-28T23:37:07.368Z,96257.41
2022-09-28T23:42:09.154Z,96249.25
2022-09-28T23:47:10.901Z,96240.81
2022-09-28T23:52:12.655Z,96243.91
2022-09-28T23:57:14.414Z,96241.03
